Kezdőlap
METAR-TAF:

METAR-TAF

Repülőterek :

Raton Municipal Airport (Crews Field)

Raton, Új-Mexikó, Amerikai Egyesült Államok

földrajzi szélesség: 36-44-31N, földrajzi hosszúság: 104-39-28W, magasság: 1935 m

Jelenlegi meteorológiai megfigyelések

A jelentés 1 órával és 5 perccel ezelõtt készült, 13:53 UTC
Déli szél 3 kt
Hőmérséklet 21°C
Páratartalom 23%
Légköri nyomás 1012 hPa
Látótávolság: 16.1 km
Derült ég

METAR: KRTN 181353Z AUTO 17003KT 10SM CLR 21/M01 A2987 RMK AO2 SLP009 T02061011

Idő: 08:58 (14:58 UTC)


TAF: hiányzik

Meteorológiai megfigyelések és előrejelzések több, mint 4000 repülőtéren (METAR és TAF jelentéseket).

A térképen piros és sárga pontok jelzik az elérhető meteorológiai állomásokat.

Mozgassa az egeret a pont fölött, hogy megjelenjen az állomás neve.

Azután kattintson az időjárási megfigyelések és előrejelzések megtekintéséhez.

A térkép megváltoztatása: kattintson a fekete keresztel jelölt zöld gombra ráközelítéshez, a vonallal jelölt zöld gombra távolításhoz, vagy a zöld nyilakra a szomszédos térképek eléréséhez.


METAR-TAF: